Terminal Aerodrome Forecast
Issued by NWS

Current Version | Previous Version | Text Only | Print | Product List | Glossary Off
Versions: 1 2 3 4 5 6 7 8 9 10 11 12 13 14 15 16

000
FTUS41 KRNK 210539
TAFLWB
TAF
KLWB 210539Z 2106/2206 00000KT 1/2SM FG SCT050
     FM210700 00000KT 1/2SM FG BKN001
     FM211000 00000KT 1/4SM FG SCT001
     FM211200 00000KT 1SM BR SCT001
     FM211300 00000KT P6SM SCT050=

USA.gov is the U.S. government's official web portal to all federal, state and local government web resources and services.